sensor_id;sensor_type;location;lat;lon;timestamp;pressure;altitude;pressure_sealevel;temperature;humidity
15884;BME280;8040;50.254;10.960;2023-12-20T00:00:56;98034.72;;;7.22;83.87
15884;BME280;8040;50.254;10.960;2023-12-20T00:03:24;98028.28;;;7.18;83.95
15884;BME280;8040;50.254;10.960;2023-12-20T00:05:49;98022.06;;;7.23;84.18
15884;BME280;8040;50.254;10.960;2023-12-20T00:08:15;98016.72;;;7.18;84.05
15884;BME280;8040;50.254;10.960;2023-12-20T00:10:40;98006.97;;;7.22;84.67
15884;BME280;8040;50.254;10.960;2023-12-20T00:13:05;98013.38;;;7.26;84.79
15884;BME280;8040;50.254;10.960;2023-12-20T00:15:32;98007.75;;;7.22;84.41
15884;BME280;8040;50.254;10.960;2023-12-20T00:17:57;97999.38;;;7.24;84.38
15884;BME280;8040;50.254;10.960;2023-12-20T00:20:23;98001.03;;;7.20;84.43
15884;BME280;8040;50.254;10.960;2023-12-20T00:22:51;98004.50;;;7.26;84.02
15884;BME280;8040;50.254;10.960;2023-12-20T00:25:17;97999.38;;;7.24;84.18
15884;BME280;8040;50.254;10.960;2023-12-20T00:27:43;97995.31;;;7.27;84.36
15884;BME280;8040;50.254;10.960;2023-12-20T00:30:08;97993.94;;;7.29;84.48
15884;BME280;8040;50.254;10.960;2023-12-20T00:32:34;97993.41;;;7.27;84.72
15884;BME280;8040;50.254;10.960;2023-12-20T00:35:00;97991.34;;;7.19;84.64
15884;BME280;8040;50.254;10.960;2023-12-20T00:37:25;98002.13;;;7.19;85.28
15884;BME280;8040;50.254;10.960;2023-12-20T00:39:50;98004.31;;;7.17;84.97
15884;BME280;8040;50.254;10.960;2023-12-20T00:42:16;98014.50;;;7.20;85.34
15884;BME280;8040;50.254;10.960;2023-12-20T00:44:41;98010.72;;;7.21;85.28
15884;BME280;8040;50.254;10.960;2023-12-20T00:47:06;98002.88;;;7.24;85.09
15884;BME280;8040;50.254;10.960;2023-12-20T00:49:32;98000.53;;;7.18;85.06
15884;BME280;8040;50.254;10.960;2023-12-20T00:51:57;97997.81;;;7.18;85.01
15884;BME280;8040;50.254;10.960;2023-12-20T00:54:22;97992.44;;;7.18;84.87
15884;BME280;8040;50.254;10.960;2023-12-20T00:56:48;97999.72;;;7.18;85.02
15884;BME280;8040;50.254;10.960;2023-12-20T00:59:13;97996.97;;;7.22;84.95
15884;BME280;8040;50.254;10.960;2023-12-20T01:01:40;97994.53;;;7.21;85.22
15884;BME280;8040;50.254;10.960;2023-12-20T01:04:05;97992.94;;;7.20;85.62
15884;BME280;8040;50.254;10.960;2023-12-20T01:06:30;97997.25;;;7.21;85.58
15884;BME280;8040;50.254;10.960;2023-12-20T01:08:56;97988.88;;;7.22;85.93
15884;BME280;8040;50.254;10.960;2023-12-20T01:11:21;97981.84;;;7.27;85.96
15884;BME280;8040;50.254;10.960;2023-12-20T01:13:47;97985.91;;;7.24;85.44
15884;BME280;8040;50.254;10.960;2023-12-20T01:16:12;97973.19;;;7.24;85.30
15884;BME280;8040;50.254;10.960;2023-12-20T01:18:38;97974.00;;;7.25;84.90
15884;BME280;8040;50.254;10.960;2023-12-20T01:21:04;97972.88;;;7.31;84.78
15884;BME280;8040;50.254;10.960;2023-12-20T01:23:29;97969.22;;;7.22;85.25
15884;BME280;8040;50.254;10.960;2023-12-20T01:25:54;97978.66;;;7.20;85.09
15884;BME280;8040;50.254;10.960;2023-12-20T01:28:23;97966.78;;;7.21;85.25
15884;BME280;8040;50.254;10.960;2023-12-20T01:30:48;97956.78;;;7.21;85.74
15884;BME280;8040;50.254;10.960;2023-12-20T01:33:14;97947.00;;;7.30;85.93
15884;BME280;8040;50.254;10.960;2023-12-20T01:35:39;97954.84;;;7.27;85.39
15884;BME280;8040;50.254;10.960;2023-12-20T01:38:04;97948.38;;;7.28;85.64
15884;BME280;8040;50.254;10.960;2023-12-20T01:40:30;97948.88;;;7.29;85.65
15884;BME280;8040;50.254;10.960;2023-12-20T01:43:02;97947.00;;;7.30;85.82
15884;BME280;8040;50.254;10.960;2023-12-20T01:45:27;97944.31;;;7.30;86.02
15884;BME280;8040;50.254;10.960;2023-12-20T01:47:54;97930.63;;;7.22;85.11
15884;BME280;8040;50.254;10.960;2023-12-20T01:50:21;97932.00;;;7.19;84.97
15884;BME280;8040;50.254;10.960;2023-12-20T01:52:46;97942.22;;;7.22;85.54
15884;BME280;8040;50.254;10.960;2023-12-20T01:55:12;97941.41;;;7.22;85.84
15884;BME280;8040;50.254;10.960;2023-12-20T01:57:41;97943.03;;;7.22;85.81
15884;BME280;8040;50.254;10.960;2023-12-20T02:00:06;97940.03;;;7.24;85.24
15884;BME280;8040;50.254;10.960;2023-12-20T02:02:34;97941.41;;;7.22;84.79
15884;BME280;8040;50.254;10.960;2023-12-20T02:05:01;97943.94;;;7.13;85.00
15884;BME280;8040;50.254;10.960;2023-12-20T02:07:29;97934.50;;;7.11;85.23
15884;BME280;8040;50.254;10.960;2023-12-20T02:09:54;97933.41;;;7.12;85.26
15884;BME280;8040;50.254;10.960;2023-12-20T02:14:57;97932.59;;;7.16;84.86
15884;BME280;8040;50.254;10.960;2023-12-20T02:17:23;97927.19;;;7.16;84.86
15884;BME280;8040;50.254;10.960;2023-12-20T02:19:49;97925.78;;;7.18;85.02
15884;BME280;8040;50.254;10.960;2023-12-20T02:22:15;97922.25;;;7.23;85.25
15884;BME280;8040;50.254;10.960;2023-12-20T02:24:43;97926.88;;;7.18;84.46
15884;BME280;8040;50.254;10.960;2023-12-20T02:27:12;97911.28;;;7.15;84.56
15884;BME280;8040;50.254;10.960;2023-12-20T02:29:37;97904.22;;;7.18;85.21
15884;BME280;8040;50.254;10.960;2023-12-20T02:32:03;97911.78;;;7.17;85.60
15884;BME280;8040;50.254;10.960;2023-12-20T02:34:28;97912.66;;;7.12;85.17
15884;BME280;8040;50.254;10.960;2023-12-20T02:36:54;97922.81;;;7.20;85.06
15884;BME280;8040;50.254;10.960;2023-12-20T02:39:20;97913.41;;;7.18;85.14
15884;BME280;8040;50.254;10.960;2023-12-20T02:41:46;97915.59;;;7.16;85.17
15884;BME280;8040;50.254;10.960;2023-12-20T02:44:11;97921.78;;;7.16;84.39
15884;BME280;8040;50.254;10.960;2023-12-20T02:46:36;97918.25;;;7.21;84.74
15884;BME280;8040;50.254;10.960;2023-12-20T02:49:02;97922.81;;;7.20;84.25
15884;BME280;8040;50.254;10.960;2023-12-20T02:51:27;97932.88;;;7.15;84.32
15884;BME280;8040;50.254;10.960;2023-12-20T02:53:52;97934.78;;;7.09;83.88
15884;BME280;8040;50.254;10.960;2023-12-20T02:56:18;97922.13;;;7.10;84.15
15884;BME280;8040;50.254;10.960;2023-12-20T02:58:43;97919.66;;;7.13;83.71
15884;BME280;8040;50.254;10.960;2023-12-20T03:01:08;97920.75;;;7.12;83.76
15884;BME280;8040;50.254;10.960;2023-12-20T03:03:34;97916.22;;;7.08;84.09
15884;BME280;8040;50.254;10.960;2023-12-20T03:05:59;97922.34;;;7.13;84.47
15884;BME280;8040;50.254;10.960;2023-12-20T03:08:25;97922.34;;;7.13;84.95
15884;BME280;8040;50.254;10.960;2023-12-20T03:10:50;97918.25;;;7.21;84.71
15884;BME280;8040;50.254;10.960;2023-12-20T03:13:15;97923.41;;;7.17;84.86
15884;BME280;8040;50.254;10.960;2023-12-20T03:15:41;97928.75;;;7.22;84.17
15884;BME280;8040;50.254;10.960;2023-12-20T03:18:06;97923.63;;;7.21;84.52
15884;BME280;8040;50.254;10.960;2023-12-20T03:20:31;97923.09;;;7.18;84.03
15884;BME280;8040;50.254;10.960;2023-12-20T03:23:00;97918.25;;;7.21;84.15
15884;BME280;8040;50.254;10.960;2023-12-20T03:25:25;97923.41;;;7.17;84.25
15884;BME280;8040;50.254;10.960;2023-12-20T03:27:51;97920.97;;;7.16;84.28
15884;BME280;8040;50.254;10.960;2023-12-20T03:30:16;97920.16;;;7.15;84.61
15884;BME280;8040;50.254;10.960;2023-12-20T03:32:41;97910.50;;;7.09;84.48
15884;BME280;8040;50.254;10.960;2023-12-20T03:35:08;97919.16;;;7.11;84.21
15884;BME280;8040;50.254;10.960;2023-12-20T03:37:33;97914.72;;;7.20;84.26
15884;BME280;8040;50.254;10.960;2023-12-20T03:39:59;97924.22;;;7.13;84.36
15884;BME280;8040;50.254;10.960;2023-12-20T03:42:24;97919.94;;;7.12;84.08
15884;BME280;8040;50.254;10.960;2023-12-20T03:44:49;97920.75;;;7.12;84.28
15884;BME280;8040;50.254;10.960;2023-12-20T03:47:15;97927.13;;;7.21;84.68
15884;BME280;8040;50.254;10.960;2023-12-20T03:49:40;97917.78;;;7.14;84.19
15884;BME280;8040;50.254;10.960;2023-12-20T03:52:05;97926.38;;;7.16;84.36
15884;BME280;8040;50.254;10.960;2023-12-20T03:54:31;97922.31;;;7.18;85.10
15884;BME280;8040;50.254;10.960;2023-12-20T03:56:57;97920.69;;;7.17;83.85
15884;BME280;8040;50.254;10.960;2023-12-20T03:59:22;97924.13;;;7.22;84.66
15884;BME280;8040;50.254;10.960;2023-12-20T04:01:48;97924.19;;;7.18;85.66
15884;BME280;8040;50.254;10.960;2023-12-20T04:04:13;97917.41;;;7.20;85.43
15884;BME280;8040;50.254;10.960;2023-12-20T04:06:38;97909.91;;;7.17;84.43
15884;BME280;8040;50.254;10.960;2023-12-20T04:09:04;97927.19;;;7.16;84.74
15884;BME280;8040;50.254;10.960;2023-12-20T04:11:29;97930.63;;;7.22;85.40
15884;BME280;8040;50.254;10.960;2023-12-20T04:13:55;97935.28;;;7.16;84.90
15884;BME280;8040;50.254;10.960;2023-12-20T04:16:20;97932.88;;;7.15;84.55
15884;BME280;8040;50.254;10.960;2023-12-20T04:18:46;97926.59;;;7.19;84.87
15884;BME280;8040;50.254;10.960;2023-12-20T04:21:11;97928.03;;;7.12;84.16
15884;BME280;8040;50.254;10.960;2023-12-20T04:23:36;97940.38;;;7.18;84.31
15884;BME280;8040;50.254;10.960;2023-12-20T04:26:02;97943.06;;;7.18;83.83
15884;BME280;8040;50.254;10.960;2023-12-20T04:28:27;97939.59;;;7.17;84.12
15884;BME280;8040;50.254;10.960;2023-12-20T04:30:55;97932.28;;;7.18;83.75
15884;BME280;8040;50.254;10.960;2023-12-20T04:33:20;97932.59;;;7.16;84.15
15884;BME280;8040;50.254;10.960;2023-12-20T04:35:46;97927.19;;;7.16;83.94
15884;BME280;8040;50.254;10.960;2023-12-20T04:38:14;97919.09;;;7.16;83.27
15884;BME280;8040;50.254;10.960;2023-12-20T04:40:39;97927.34;;;7.24;84.31
15884;BME280;8040;50.254;10.960;2023-12-20T04:43:06;97933.78;;;7.28;84.40
15884;BME280;8040;50.254;10.960;2023-12-20T04:45:32;97930.91;;;7.20;84.04
15884;BME280;8040;50.254;10.960;2023-12-20T04:47:57;97922.22;;;7.28;83.33
15884;BME280;8040;50.254;10.960;2023-12-20T04:50:23;97924.91;;;7.28;83.41
15884;BME280;8040;50.254;10.960;2023-12-20T04:52:48;97916.56;;;7.24;84.15
15884;BME280;8040;50.254;10.960;2023-12-20T04:55:13;97914.66;;;7.25;84.20
15884;BME280;8040;50.254;10.960;2023-12-20T04:57:39;97929.25;;;7.24;83.98
15884;BME280;8040;50.254;10.960;2023-12-20T05:00:04;97920.31;;;7.28;84.15
15884;BME280;8040;50.254;10.960;2023-12-20T05:02:30;97921.16;;;7.24;83.94
15884;BME280;8040;50.254;10.960;2023-12-20T05:04:55;97924.13;;;7.22;84.03
15884;BME280;8040;50.254;10.960;2023-12-20T05:07:21;97929.22;;;7.29;84.00
15884;BME280;8040;50.254;10.960;2023-12-20T05:09:46;97929.22;;;7.29;83.80
15884;BME280;8040;50.254;10.960;2023-12-20T05:12:12;97921.34;;;7.32;83.98
15884;BME280;8040;50.254;10.960;2023-12-20T05:14:37;97924.28;;;7.36;83.69
15884;BME280;8040;50.254;10.960;2023-12-20T05:17:03;97918.88;;;7.36;83.76
15884;BME280;8040;50.254;10.960;2023-12-20T05:19:28;97922.94;;;7.33;84.19
15884;BME280;8040;50.254;10.960;2023-12-20T05:21:53;97925.38;;;7.35;84.12
15884;BME280;8040;50.254;10.960;2023-12-20T05:24:19;97931.84;;;7.34;83.99
15884;BME280;8040;50.254;10.960;2023-12-20T05:26:44;97938.09;;;7.29;84.02
15884;BME280;8040;50.254;10.960;2023-12-20T05:29:10;97940.00;;;7.29;83.86
15884;BME280;8040;50.254;10.960;2023-12-20T05:31:35;97938.31;;;7.33;84.00
15884;BME280;8040;50.254;10.960;2023-12-20T05:34:00;97938.31;;;7.33;84.33
15884;BME280;8040;50.254;10.960;2023-12-20T05:36:26;97952.63;;;7.33;84.30
15884;BME280;8040;50.254;10.960;2023-12-20T05:38:51;97964.47;;;7.38;84.50
15884;BME280;8040;50.254;10.960;2023-12-20T05:41:16;97956.06;;;7.39;84.39
15884;BME280;8040;50.254;10.960;2023-12-20T05:43:44;97956.66;;;7.36;83.72
15884;BME280;8040;50.254;10.960;2023-12-20T05:46:10;97960.94;;;7.37;83.43
15884;BME280;8040;50.254;10.960;2023-12-20T05:48:37;97961.47;;;7.39;84.13
15884;BME280;8040;50.254;10.960;2023-12-20T05:51:02;97962.81;;;7.36;84.42
15884;BME280;8040;50.254;10.960;2023-12-20T05:53:28;97966.97;;;7.29;84.23
15884;BME280;8040;50.254;10.960;2023-12-20T05:55:53;97976.91;;;7.33;84.35
15884;BME280;8040;50.254;10.960;2023-12-20T05:58:18;97970.94;;;7.36;84.13
15884;BME280;8040;50.254;10.960;2023-12-20T06:00:44;97969.03;;;7.37;84.43
15884;BME280;8040;50.254;10.960;2023-12-20T06:03:09;97953.91;;;7.41;84.27
15884;BME280;8040;50.254;10.960;2023-12-20T06:05:34;97961.41;;;7.44;84.38
15884;BME280;8040;50.254;10.960;2023-12-20T06:08:00;97950.63;;;7.44;84.79
15884;BME280;8040;50.254;10.960;2023-12-20T06:10:28;97957.63;;;7.45;84.55
15884;BME280;8040;50.254;10.960;2023-12-20T06:12:53;97967.84;;;7.48;84.50
15884;BME280;8040;50.254;10.960;2023-12-20T06:15:19;97970.59;;;7.43;84.12
15884;BME280;8040;50.254;10.960;2023-12-20T06:17:44;97972.44;;;7.47;84.54
15884;BME280;8040;50.254;10.960;2023-12-20T06:20:10;97965.66;;;7.50;83.37
15884;BME280;8040;50.254;10.960;2023-12-20T06:22:35;97973.47;;;7.51;84.01
15884;BME280;8040;50.254;10.960;2023-12-20T06:25:01;97984.50;;;7.55;83.74
15884;BME280;8040;50.254;10.960;2023-12-20T06:27:33;97986.69;;;7.53;84.17
15884;BME280;8040;50.254;10.960;2023-12-20T06:29:59;97981.00;;;7.54;83.37
15884;BME280;8040;50.254;10.960;2023-12-20T06:32:24;97980.66;;;7.61;83.56
15884;BME280;8040;50.254;10.960;2023-12-20T06:34:50;97990.31;;;7.67;83.55
15884;BME280;8040;50.254;10.960;2023-12-20T06:37:15;97997.53;;;7.71;83.18
15884;BME280;8040;50.254;10.960;2023-12-20T06:39:43;97984.44;;;7.60;82.24
15884;BME280;8040;50.254;10.960;2023-12-20T06:42:08;98004.38;;;7.64;82.35
15884;BME280;8040;50.254;10.960;2023-12-20T06:44:33;98004.25;;;7.74;82.42
15884;BME280;8040;50.254;10.960;2023-12-20T06:46:59;98017.25;;;7.72;82.36
15884;BME280;8040;50.254;10.960;2023-12-20T06:49:26;98025.03;;;7.73;82.09
15884;BME280;8040;50.254;10.960;2023-12-20T06:51:51;98027.38;;;7.61;82.05
15884;BME280;8040;50.254;10.960;2023-12-20T06:54:16;98029.00;;;7.57;82.21
15884;BME280;8040;50.254;10.960;2023-12-20T06:56:42;98035.28;;;7.53;82.74
15884;BME280;8040;50.254;10.960;2023-12-20T06:59:07;98032.84;;;7.51;82.56
15884;BME280;8040;50.254;10.960;2023-12-20T07:01:33;98036.19;;;7.43;82.86
15884;BME280;8040;50.254;10.960;2023-12-20T07:03:58;98049.41;;;7.40;82.86
15884;BME280;8040;50.254;10.960;2023-12-20T07:06:23;98056.03;;;7.24;82.61
15884;BME280;8040;50.254;10.960;2023-12-20T07:08:50;98060.38;;;7.20;82.73
15884;BME280;8040;50.254;10.960;2023-12-20T07:11:16;98060.59;;;7.23;83.13
15884;BME280;8040;50.254;10.960;2023-12-20T07:13:42;98056.66;;;7.16;82.94
15884;BME280;8040;50.254;10.960;2023-12-20T07:16:07;98060.91;;;7.22;82.86
15884;BME280;8040;50.254;10.960;2023-12-20T07:18:33;98069.03;;;7.17;82.70
15884;BME280;8040;50.254;10.960;2023-12-20T07:20:58;98067.91;;;7.23;82.69
15884;BME280;8040;50.254;10.960;2023-12-20T07:23:23;98077.34;;;7.26;82.44
15884;BME280;8040;50.254;10.960;2023-12-20T07:25:50;98064.63;;;7.26;82.30
15884;BME280;8040;50.254;10.960;2023-12-20T07:28:16;98059.84;;;7.18;81.79
15884;BME280;8040;50.254;10.960;2023-12-20T07:30:41;98072.56;;;7.13;81.92
15884;BME280;8040;50.254;10.960;2023-12-20T07:33:07;98060.16;;;7.12;81.82
15884;BME280;8040;50.254;10.960;2023-12-20T07:35:34;98069.31;;;7.16;81.86
15884;BME280;8040;50.254;10.960;2023-12-20T07:37:59;98073.31;;;7.23;82.48
15884;BME280;8040;50.254;10.960;2023-12-20T07:40:33;98073.84;;;7.20;82.45
15884;BME280;8040;50.254;10.960;2023-12-20T07:42:59;98074.69;;;7.21;81.67
15884;BME280;8040;50.254;10.960;2023-12-20T07:45:24;98072.31;;;7.09;81.00
15884;BME280;8040;50.254;10.960;2023-12-20T07:47:49;98076.94;;;7.09;81.61
15884;BME280;8040;50.254;10.960;2023-12-20T07:50:15;98070.47;;;7.05;81.48
15884;BME280;8040;50.254;10.960;2023-12-20T07:52:41;98071.84;;;7.02;81.49
15884;BME280;8040;50.254;10.960;2023-12-20T07:55:06;98068.38;;;6.97;81.62
15884;BME280;8040;50.254;10.960;2023-12-20T07:57:32;98074.31;;;6.94;80.64
15884;BME280;8040;50.254;10.960;2023-12-20T07:59:57;98060.84;;;6.94;80.36
15884;BME280;8040;50.254;10.960;2023-12-20T08:02:22;98063.22;;;7.00;80.51
15884;BME280;8040;50.254;10.960;2023-12-20T08:04:50;98048.66;;;7.01;80.47
15884;BME280;8040;50.254;10.960;2023-12-20T08:07:16;98053.44;;;7.09;79.87
15884;BME280;8040;50.254;10.960;2023-12-20T08:09:41;98057.25;;;7.03;79.98
15884;BME280;8040;50.254;10.960;2023-12-20T08:12:08;98068.03;;;7.03;80.43
15884;BME280;8040;50.254;10.960;2023-12-20T08:14:34;98064.06;;;7.01;79.96
15884;BME280;8040;50.254;10.960;2023-12-20T08:16:59;98076.13;;;7.03;80.22
15884;BME280;8040;50.254;10.960;2023-12-20T08:19:25;98067.25;;;7.03;80.46
15884;BME280;8040;50.254;10.960;2023-12-20T08:21:50;98073.69;;;7.07;80.13
15884;BME280;8040;50.254;10.960;2023-12-20T08:24:16;98081.50;;;7.08;80.11
15884;BME280;8040;50.254;10.960;2023-12-20T08:26:41;98085.53;;;7.11;80.09
15884;BME280;8040;50.254;10.960;2023-12-20T08:29:06;98077.72;;;7.09;80.19
15884;BME280;8040;50.254;10.960;2023-12-20T08:31:32;98080.97;;;7.11;80.32
15884;BME280;8040;50.254;10.960;2023-12-20T08:33:57;98080.06;;;7.21;80.59
15884;BME280;8040;50.254;10.960;2023-12-20T08:36:24;98089.63;;;7.36;81.15
15884;BME280;8040;50.254;10.960;2023-12-20T08:38:49;98093.00;;;7.52;79.70
15884;BME280;8040;50.254;10.960;2023-12-20T08:41:16;98101.09;;;7.52;79.28
15884;BME280;8040;50.254;10.960;2023-12-20T08:43:41;98098.41;;;7.52;79.24
15884;BME280;8040;50.254;10.960;2023-12-20T08:46:07;98110.34;;;7.46;78.42
15884;BME280;8040;50.254;10.960;2023-12-20T08:48:34;98114.94;;;7.45;78.48
15884;BME280;8040;50.254;10.960;2023-12-20T08:51:00;98115.94;;;7.54;79.48
15884;BME280;8040;50.254;10.960;2023-12-20T08:53:25;98116.44;;;7.61;80.47
15884;BME280;8040;50.254;10.960;2023-12-20T08:55:50;98117.22;;;7.62;79.50
15884;BME280;8040;50.254;10.960;2023-12-20T09:01:38;98118.31;;;7.61;79.28
15884;BME280;8040;50.254;10.960;2023-12-20T09:04:03;98113.16;;;7.64;79.25
15884;BME280;8040;50.254;10.960;2023-12-20T09:06:28;98123.19;;;7.59;79.30
15884;BME280;8040;50.254;10.960;2023-12-20T09:08:54;98114.25;;;7.63;79.53
15884;BME280;8040;50.254;10.960;2023-12-20T09:11:19;98116.94;;;7.63;78.93
15884;BME280;8040;50.254;10.960;2023-12-20T09:13:44;98115.09;;;7.59;78.58
15884;BME280;8040;50.254;10.960;2023-12-20T09:16:10;98108.03;;;7.63;78.54
15884;BME280;8040;50.254;10.960;2023-12-20T09:18:35;98117.47;;;7.65;78.98
15884;BME280;8040;50.254;10.960;2023-12-20T09:21:01;98117.19;;;7.67;78.25
15884;BME280;8040;50.254;10.960;2023-12-20T09:23:27;98120.41;;;7.69;78.51
15884;BME280;8040;50.254;10.960;2023-12-20T09:25:52;98132.28;;;7.68;78.07
15884;BME280;8040;50.254;10.960;2023-12-20T09:28:17;98125.25;;;7.72;77.90
15884;BME280;8040;50.254;10.960;2023-12-20T09:30:43;98127.91;;;7.77;78.48
15884;BME280;8040;50.254;10.960;2023-12-20T09:33:09;98135.22;;;7.71;77.20
15884;BME280;8040;50.254;10.960;2023-12-20T09:35:35;98140.38;;;7.68;76.56
15884;BME280;8040;50.254;10.960;2023-12-20T09:38:00;98140.38;;;7.68;76.39
15884;BME280;8040;50.254;10.960;2023-12-20T09:40:26;98142.34;;;7.62;75.83
15884;BME280;8040;50.254;10.960;2023-12-20T09:42:56;98137.91;;;7.71;75.97
15884;BME280;8040;50.254;10.960;2023-12-20T09:45:22;98142.41;;;7.81;76.19
15884;BME280;8040;50.254;10.960;2023-12-20T09:47:48;98145.59;;;7.88;75.37
15884;BME280;8040;50.254;10.960;2023-12-20T09:50:15;98132.94;;;7.83;75.31
15884;BME280;8040;50.254;10.960;2023-12-20T09:52:41;98149.38;;;7.87;75.42
15884;BME280;8040;50.254;10.960;2023-12-20T09:55:08;98135.38;;;7.85;75.49
15884;BME280;8040;50.254;10.960;2023-12-20T09:57:34;98130.53;;;7.82;75.12
15884;BME280;8040;50.254;10.960;2023-12-20T10:00:00;98130.59;;;7.77;75.14
15884;BME280;8040;50.254;10.960;2023-12-20T10:02:26;98125.94;;;7.82;75.30
15884;BME280;8040;50.254;10.960;2023-12-20T10:04:52;98127.31;;;7.80;75.52
15884;BME280;8040;50.254;10.960;2023-12-20T10:07:18;98112.84;;;7.71;76.21
15884;BME280;8040;50.254;10.960;2023-12-20T10:09:43;98100.63;;;7.73;76.48
15884;BME280;8040;50.254;10.960;2023-12-20T10:12:12;98109.03;;;7.72;75.77
15884;BME280;8040;50.254;10.960;2023-12-20T10:14:38;98105.91;;;7.60;75.59
15884;BME280;8040;50.254;10.960;2023-12-20T10:17:04;98095.66;;;7.57;76.18
15884;BME280;8040;50.254;10.960;2023-12-20T10:19:29;98102.94;;;7.61;76.57
15884;BME280;8040;50.254;10.960;2023-12-20T10:21:55;98102.59;;;7.68;76.92
15884;BME280;8040;50.254;10.960;2023-12-20T10:24:20;98096.22;;;7.59;76.23
15884;BME280;8040;50.254;10.960;2023-12-20T10:26:46;98101.22;;;7.70;77.01
15884;BME280;8040;50.254;10.960;2023-12-20T10:29:14;98093.88;;;7.76;76.68
15884;BME280;8040;50.254;10.960;2023-12-20T10:31:39;98086.25;;;7.83;77.83
15884;BME280;8040;50.254;10.960;2023-12-20T10:34:05;98088.00;;;7.69;75.95
15884;BME280;8040;50.254;10.960;2023-12-20T10:36:32;98083.56;;;7.83;76.63
15884;BME280;8040;50.254;10.960;2023-12-20T10:38:57;98082.22;;;7.80;75.82
15884;BME280;8040;50.254;10.960;2023-12-20T10:41:26;98073.31;;;7.80;75.89
15884;BME280;8040;50.254;10.960;2023-12-20T10:43:56;98068.97;;;7.84;75.80
15884;BME280;8040;50.254;10.960;2023-12-20T10:46:23;98067.97;;;7.75;75.50
15884;BME280;8040;50.254;10.960;2023-12-20T10:48:51;98073.63;;;7.73;74.82
15884;BME280;8040;50.254;10.960;2023-12-20T10:51:18;98067.91;;;7.80;74.61
15884;BME280;8040;50.254;10.960;2023-12-20T10:53:44;98066.81;;;7.81;74.54
15884;BME280;8040;50.254;10.960;2023-12-20T10:56:11;98055.06;;;7.72;74.60
15884;BME280;8040;50.254;10.960;2023-12-20T10:58:41;98052.84;;;7.74;75.88
15884;BME280;8040;50.254;10.960;2023-12-20T11:01:07;98048.84;;;7.71;75.88
15884;BME280;8040;50.254;10.960;2023-12-20T11:03:34;98051.94;;;7.60;75.12
15884;BME280;8040;50.254;10.960;2023-12-20T11:13:54;98052.41;;;7.67;76.36
15884;BME280;8040;50.254;10.960;2023-12-20T11:16:22;98055.56;;;7.74;75.88
15884;BME280;8040;50.254;10.960;2023-12-20T11:18:49;98053.03;;;7.82;76.10
15884;BME280;8040;50.254;10.960;2023-12-20T11:21:15;98051.16;;;7.83;75.22
15884;BME280;8040;50.254;10.960;2023-12-20T11:23:41;98059.00;;;7.79;75.55
15884;BME280;8040;50.254;10.960;2023-12-20T11:26:07;98052.75;;;7.84;75.71
15884;BME280;8040;50.254;10.960;2023-12-20T11:28:32;98059.72;;;7.90;75.18
15884;BME280;8040;50.254;10.960;2023-12-20T11:30:58;98058.50;;;8.01;75.10
15884;BME280;8040;50.254;10.960;2023-12-20T11:33:26;98058.50;;;8.01;74.44
15884;BME280;8040;50.254;10.960;2023-12-20T11:35:52;98047.22;;;7.94;74.32
15884;BME280;8040;50.254;10.960;2023-12-20T11:38:20;98043.69;;;7.98;74.70
15884;BME280;8040;50.254;10.960;2023-12-20T11:40:47;98040.13;;;8.03;74.31
15884;BME280;8040;50.254;10.960;2023-12-20T11:43:13;98047.13;;;8.04;74.45
15884;BME280;8040;50.254;10.960;2023-12-20T11:45:54;98043.38;;;8.00;74.43
15884;BME280;8040;50.254;10.960;2023-12-20T11:48:19;98052.63;;;7.94;74.61
15884;BME280;8040;50.254;10.960;2023-12-20T11:50:45;98045.84;;;7.96;75.21
15884;BME280;8040;50.254;10.960;2023-12-20T11:53:11;98042.53;;;8.04;75.36
15884;BME280;8040;50.254;10.960;2023-12-20T11:55:36;98038.22;;;8.03;74.70
15884;BME280;8040;50.254;10.960;2023-12-20T11:58:01;98042.09;;;8.21;75.38
15884;BME280;8040;50.254;10.960;2023-12-20T12:00:27;98040.72;;;8.23;74.87
15884;BME280;8040;50.254;10.960;2023-12-20T12:02:56;98027.81;;;8.15;74.52
15884;BME280;8040;50.254;10.960;2023-12-20T12:05:22;98033.44;;;8.19;73.66
15884;BME280;8040;50.254;10.960;2023-12-20T12:07:47;98029.78;;;8.10;73.07
15884;BME280;8040;50.254;10.960;2023-12-20T12:10:12;98027.13;;;8.05;73.25
15884;BME280;8040;50.254;10.960;2023-12-20T12:12:38;98028.28;;;7.99;73.65
15884;BME280;8040;50.254;10.960;2023-12-20T12:15:04;98025.06;;;7.97;74.07
15884;BME280;8040;50.254;10.960;2023-12-20T12:17:29;98022.00;;;8.03;74.70
15884;BME280;8040;50.254;10.960;2023-12-20T12:20:04;98018.28;;;7.99;74.57
15884;BME280;8040;50.254;10.960;2023-12-20T12:22:30;98022.81;;;8.04;74.43
15884;BME280;8040;50.254;10.960;2023-12-20T12:24:58;98015.63;;;8.18;74.42
15884;BME280;8040;50.254;10.960;2023-12-20T12:27:23;98010.13;;;8.28;74.22
15884;BME280;8040;50.254;10.960;2023-12-20T12:30:03;98000.13;;;8.28;72.94
15884;BME280;8040;50.254;10.960;2023-12-20T12:32:29;98002.69;;;8.38;73.23
15884;BME280;8040;50.254;10.960;2023-12-20T12:34:57;97989.81;;;8.49;73.35
15884;BME280;8040;50.254;10.960;2023-12-20T12:37:22;97998.97;;;8.53;72.31
15884;BME280;8040;50.254;10.960;2023-12-20T12:39:49;98002.53;;;8.67;72.03
15884;BME280;8040;50.254;10.960;2023-12-20T12:42:14;97998.91;;;8.58;69.56
15884;BME280;8040;50.254;10.960;2023-12-20T12:44:40;98003.00;;;8.55;69.80
15884;BME280;8040;50.254;10.960;2023-12-20T12:47:05;97989.25;;;8.52;70.01
15884;BME280;8040;50.254;10.960;2023-12-20T12:49:33;97996.25;;;8.53;68.36
15884;BME280;8040;50.254;10.960;2023-12-20T12:51:58;97995.75;;;8.51;68.83
15884;BME280;8040;50.254;10.960;2023-12-20T12:54:24;97995.44;;;8.52;69.54
15884;BME280;8040;50.254;10.960;2023-12-20T12:56:49;97990.47;;;8.41;69.25
15884;BME280;8040;50.254;10.960;2023-12-20T12:59:15;97994.78;;;8.23;69.59
15884;BME280;8040;50.254;10.960;2023-12-20T13:01:41;97993.47;;;8.21;70.48
15884;BME280;8040;50.254;10.960;2023-12-20T13:04:06;97991.88;;;8.20;70.60
15884;BME280;8040;50.254;10.960;2023-12-20T13:06:35;97992.88;;;8.24;70.32
15884;BME280;8040;50.254;10.960;2023-12-20T13:09:01;97990.41;;;8.46;71.28
15884;BME280;8040;50.254;10.960;2023-12-20T13:11:26;97986.53;;;8.89;73.29
15884;BME280;8040;50.254;10.960;2023-12-20T13:13:52;97982.78;;;8.85;69.36
15884;BME280;8040;50.254;10.960;2023-12-20T13:16:20;97984.56;;;8.76;68.75